Station CNII2 - Northerly Isle, IL Image indicating link to RSS feed of recent meteorological observations for station CNII2


Conditions at CNII2 as of
(2:00 am CDT)
0700 GMT on 04/14/2024:
     

Click on the graph icon in the table below to see a time series plot of the last five days of that observation.

5-day plot - Wind Direction Wind Direction (WDIR): S ( 190 deg true )
5-day plot - Wind Speed Wind Speed (WSPD): 14.0 kts
5-day plot - Wind Gust Wind Gust (GST): 17.1 kts
5-day plot - Air Temperature Air Temperature (ATMP): 63.5 °F
5-day plot - Dew Point Dew Point (DEWP): 42.4 °F
5-day plot - Wind Speed at 10 Meters Wind Speed at 10 meters (WSPD10M): 13.6 kts
5-day plot - Wind Speed at 20 Meters Wind Speed at 20 meters (WSPD20M): 15.5 kts
5-day plot -  Wind Speed, Wind Gust and Atmospheric Pressure Combined plot of Wind Speed, Gust, and Air Pressure
Previous observations
TIME
(CDT)
5-day plot - Wind Direction
WDIR
 
5-day plot - Wind Speed
WSPD
kts
5-day plot - Wind Gust
GST
kts
5-day plot - Wave Height
WVHT
ft
5-day plot - Dominant Wave Period
DPD
sec
5-day plot - Average Wave Period
APD
sec
5-day plot - Mean Wave Direction
MWD
 
5-day plot - Atmospheric Pressure
PRES
in
5-day plot - Pressure Tendency
PTDY
in
5-day plot - Air Temperature
ATMP
°F
5-day plot - Water Temperature
WTMP
°F
5-day plot - Dew Point
DEWP
°F
5-day plot - Salinity
SAL
psu
5-day plot - Visibility
VIS
nmi
5-day plot - Tide (above MLLW)
TIDE
ft
2024-04-14 01:45 am SW 11.1 22.9------ 64.0- 41.9---
2024-04-14 01:30 am S 12.0 22.9------ 63.7- 41.2---
2024-04-14 01:15 amSSW 12.0 22.9------ 64.0- 40.6---
2024-04-14 01:00 am S 15.9 22.9------ 64.6- 40.3---
2024-04-14 12:45 am S 18.1 19.0------ 64.2- 39.7---
2024-04-14 12:30 amSSW 17.1 19.0------ 64.4- 39.7---
2024-04-14 12:15 amSSW 17.1 19.0------ 64.2- 39.7---
2024-04-14 12:00 am SW 15.0 19.0------ 64.4- 39.9---
2024-04-13 11:45 pm S 15.0 22.0------ 64.4- 39.6---
2024-04-13 11:30 pmSSW 15.9 22.0------ 64.4- 39.6---
2024-04-13 11:15 pmSSW 14.0 22.0------ 64.4- 39.7---
2024-04-13 11:00 pm S 19.0 22.0------ 64.2- 39.4---
2024-04-13 10:45 pm S 20.0 22.0------ 64.6- 39.0---
2024-04-13 10:30 pmSSW 17.1 22.0------ 64.9- 38.8---
2024-04-13 10:15 pmSSW 15.0 22.0------ 64.9- 38.5---
2024-04-13 10:00 pmSSW 15.9 22.0------ 65.3- 37.9---
2024-04-13 09:45 pm SW 14.0 17.1------ 65.7- 37.0---
2024-04-13 09:30 pm S 17.1 17.1------ 66.0- 36.7---
2024-04-13 09:15 pm S 15.0 17.1------ 65.7- 35.8---
2024-04-13 09:00 pm S 18.1------- 66.4- 35.2---
2024-04-13 08:45 pm S 12.0 14.0------ 66.6- 34.3---
2024-04-13 08:30 pmSSW 11.1 14.0------ 66.9- 34.2---
2024-04-13 08:15 pmSSW 9.9 14.0------ 67.3- 33.8---
2024-04-13 08:00 pm S 11.1 14.0------ 67.1- 33.6---
2024-04-13 07:45 pm S 11.1 15.9------ 67.8- 32.5---
2024-04-13 07:30 pm S 12.0 15.9------ 68.4- 33.1---
2024-04-13 07:15 pmSSW 9.9 15.9------ 68.4- 32.5---
2024-04-13 07:00 pm S 8.9 15.9------ 68.7- 32.4---
2024-04-13 06:45 pmSSW 8.0 14.0------ 68.9- 31.8---
2024-04-13 06:30 pm S 13.0 14.0------ 69.1- 32.0---
2024-04-13 06:15 pm SW 11.1 14.0------ 69.4- 31.5---
2024-04-13 06:00 pmSSW 13.0 14.0------ 69.6- 31.6---
2024-04-13 05:45 pmSSW 7.0------- 69.3- 31.6---
2024-04-13 05:30 pmSSW 9.9------- 68.9-----
2024-04-13 05:15 pm S 6.0 7.0------ 68.9-----
2024-04-13 05:00 pm SW 8.0------- 67.8-----
2024-04-13 04:45 pm SE 6.0------- 55.8- 41.2---
2024-04-13 04:30 pm SE 6.0------- 54.3- 41.0---
2024-04-13 04:15 pm E 2.9 5.1------ 54.0- 40.1---
2024-04-13 04:00 pm SE 2.9 5.1------ 52.9- 39.0---
2024-04-13 03:45 pm E 4.1 6.0------ 52.5- 38.1---
2024-04-13 03:30 pm E 1.9 6.0------ 52.0- 37.6---
2024-04-13 03:15 pm E 4.1 6.0------ 51.6- 37.4---
2024-04-13 03:00 pm SE 2.9 6.0------ 51.6- 38.1---
2024-04-13 02:45 pmESE 2.9 6.0------ 50.5- 37.2---
2024-04-13 02:30 pmESE 2.9 6.0------ 51.3- 37.2---
2024-04-13 02:15 pm SE 4.1 6.0------ 52.5- 36.5---
2024-04-13 02:00 pmESE 1.9 6.0------ 52.2- 36.5---
2024-04-13 01:45 pm E 2.9 4.1------ 52.5- 37.9---
2024-04-13 01:30 pmESE 4.1 4.1------ 52.2- 36.1---
2024-04-13 01:15 pm E 2.9 4.1------ 52.2- 37.6---
2024-04-13 01:00 pmENE 4.1 4.1------ 51.8- 37.4---
2024-04-13 12:45 pm E 4.1 6.0------ 51.4- 35.2---
2024-04-13 12:30 pmESE 2.9 6.0------ 51.6- 37.9---
2024-04-13 12:15 pm E 2.9 6.0------ 52.5- 37.4---
2024-04-13 12:00 pmENE 2.9 6.0------ 51.8- 37.4---
2024-04-13 11:45 am E 2.9 8.9------ 52.3- 36.9---
2024-04-13 11:30 amENE 5.1 8.9------ 52.2- 37.2---
2024-04-13 11:15 amENE 5.1 8.9------ 52.9- 36.0---
2024-04-13 11:00 amENE 4.1 8.9------ 52.5- 37.9---
2024-04-13 10:45 am NE 7.0------- 53.1- 38.1---
2024-04-13 10:30 amENE 7.0------- 52.7- 39.7---
2024-04-13 10:15 amENE 6.0------- 54.1- 35.6---
2024-04-13 10:00 am E 4.1 6.0------ 55.2- 34.7---
2024-04-13 09:45 amNNW 2.9 8.9------ 57.2- 33.8---
2024-04-13 09:30 am W 2.9 8.9------ 55.8- 32.2---
2024-04-13 09:15 amWNW 2.9 8.9------ 55.2- 31.3---
2024-04-13 09:00 am W 2.9 8.9------ 54.1- 32.7---
2024-04-13 08:45 am W 4.1 11.1------ 53.1- 32.5---
2024-04-13 08:30 amWSW 6.0 11.1------ 50.9- 33.3---
2024-04-13 08:15 am W 8.0 11.1------ 50.9- 32.4---
2024-04-13 08:00 am W 8.0 11.1------ 50.4- 32.4---
2024-04-13 07:45 am W 7.0 11.1------ 50.0- 33.3---
2024-04-13 07:30 am W 6.0 11.1------ 49.3- 33.4---
2024-04-13 07:15 am W 8.0 11.1------ 48.2- 32.7---
2024-04-13 07:00 am W 7.0 11.1------ 48.9- 32.7---
2024-04-13 06:45 am W 8.0 9.9------ 48.7- 32.5---
2024-04-13 06:30 am W 8.0 9.9------ 48.4- 33.1---
2024-04-13 06:15 am W 8.9 9.9------ 48.4- 33.1---
2024-04-13 06:00 am W 6.0 9.9------ 47.7- 33.3---
2024-04-13 05:45 am W 7.0 11.1------ 48.0- 33.3---
2024-04-13 05:30 am W 7.0 11.1------ 48.4- 33.3---
2024-04-13 05:15 am W 8.9 11.1------ 48.6- 33.1---
2024-04-13 05:00 am W 8.9 11.1------ 48.9- 32.9---
2024-04-13 04:45 am W 8.0 9.9------ 48.9- 33.1---
2024-04-13 04:30 am W 8.0 9.9------ 49.3- 32.2---
2024-04-13 04:15 am W 8.0 9.9------ 49.6- 32.0---
2024-04-13 04:00 am W 7.0 9.9------ 50.0- 32.7---
2024-04-13 03:45 am NW 5.1 12.0------ 50.5- 32.9---
2024-04-13 03:30 am W 4.1 12.0------ 51.3- 31.6---
2024-04-13 03:15 amWNW 8.9 12.0------ 51.1- 32.4---
2024-04-13 03:00 am W 8.9 12.0------ 50.7- 32.7---
2024-04-13 02:45 am W 8.9 11.1------ 50.9- 33.1---
2024-04-13 02:30 am W 8.0 11.1------ 50.5- 33.6---
2024-04-13 02:15 am W 7.0 11.1------ 50.7- 33.8---
2024-04-13 02:00 am W 8.0 11.1------ 51.4- 33.3---